createdAt,value
2023-04-16T00:02:05.793Z,12.10
2023-04-16T00:04:33.064Z,11.55
2023-04-16T00:07:00.450Z,11.38
2023-04-16T00:09:29.057Z,11.97
2023-04-16T00:11:56.339Z,12.30
2023-04-16T00:14:23.553Z,12.00
2023-04-16T00:16:51.139Z,12.25
2023-04-16T00:19:18.356Z,11.98
2023-04-16T00:21:45.400Z,12.03
2023-04-16T00:24:12.839Z,11.93
2023-04-16T00:26:40.901Z,11.50
2023-04-16T00:29:08.574Z,11.55
2023-04-16T00:31:37.265Z,12.20
2023-04-16T00:34:04.564Z,12.20
2023-04-16T00:36:31.677Z,11.93
2023-04-16T00:38:58.808Z,12.38
2023-04-16T00:41:26.773Z,11.93
2023-04-16T00:43:54.191Z,12.15
2023-04-16T00:46:22.475Z,11.27
2023-04-16T00:48:51.540Z,10.88
2023-04-16T00:51:20.076Z,10.90
2023-04-16T00:53:47.292Z,10.35
2023-04-16T00:56:14.860Z,11.23
2023-04-16T00:58:41.995Z,11.10
2023-04-16T01:01:09.082Z,10.85
2023-04-16T01:03:43.720Z,11.55
2023-04-16T01:06:11.724Z,10.05
2023-04-16T01:08:47.037Z,11.10
2023-04-16T01:11:16.163Z,11.07
2023-04-16T01:13:43.426Z,10.52
2023-04-16T01:16:12.148Z,10.13
2023-04-16T01:18:40.442Z,10.68
2023-04-16T01:21:08.618Z,10.05
2023-04-16T01:23:38.430Z,10.13
2023-04-16T01:26:06.468Z,10.93
2023-04-16T01:28:36.376Z,11.32
2023-04-16T01:31:03.959Z,9.60
2023-04-16T01:33:31.409Z,10.05
2023-04-16T01:35:59.345Z,11.47
2023-04-16T01:38:28.236Z,11.02
2023-04-16T01:40:57.565Z,11.13
2023-04-16T01:43:26.226Z,11.10
2023-04-16T01:46:14.893Z,10.10
2023-04-16T01:48:42.464Z,9.20
2023-04-16T01:51:10.162Z,10.45
2023-04-16T01:53:37.360Z,10.85
2023-04-16T01:56:04.755Z,10.35
2023-04-16T01:58:32.416Z,10.55
2023-04-16T02:01:00.665Z,11.00
2023-04-16T02:03:28.371Z,9.30
2023-04-16T02:05:55.982Z,10.10
2023-04-16T02:08:23.743Z,9.63
2023-04-16T02:10:52.433Z,10.38
2023-04-16T02:13:20.426Z,10.17
2023-04-16T02:15:49.826Z,10.02
2023-04-16T02:18:17.835Z,10.10
2023-04-16T02:20:47.078Z,10.32
2023-04-16T02:23:17.944Z,8.90
2023-04-16T02:25:47.238Z,9.30
2023-04-16T02:28:16.857Z,10.68
2023-04-16T02:30:44.767Z,10.15
2023-04-16T02:33:13.594Z,9.73
2023-04-16T02:35:41.659Z,9.00
2023-04-16T02:38:10.359Z,9.00
2023-04-16T02:40:39.124Z,9.68
2023-04-16T02:43:07.542Z,8.80
2023-04-16T02:45:35.709Z,8.90
2023-04-16T02:48:03.887Z,10.43
2023-04-16T02:50:32.060Z,9.90
2023-04-16T02:53:01.572Z,8.88
2023-04-16T02:55:30.190Z,9.13
2023-04-16T02:57:57.716Z,9.35
2023-04-16T03:00:25.974Z,8.98
2023-04-16T03:02:55.257Z,9.13
2023-04-16T03:05:22.945Z,9.80
2023-04-16T03:07:57.010Z,9.18
2023-04-16T03:10:24.846Z,9.45
2023-04-16T03:12:53.000Z,8.90
2023-04-16T03:15:20.786Z,9.30
2023-04-16T03:17:48.835Z,8.75
2023-04-16T03:20:17.106Z,8.57
2023-04-16T03:22:44.213Z,9.32
2023-04-16T03:25:11.676Z,8.48
2023-04-16T03:27:41.734Z,8.63
2023-04-16T03:30:11.046Z,9.40
2023-04-16T03:32:38.577Z,9.55
2023-04-16T03:35:07.583Z,9.82
2023-04-16T03:37:34.782Z,9.75
2023-04-16T03:40:02.040Z,9.20
2023-04-16T03:42:29.109Z,9.52
2023-04-16T03:44:56.175Z,9.20
2023-04-16T03:47:23.585Z,9.55
2023-04-16T03:49:50.962Z,8.95
2023-04-16T03:52:18.043Z,8.50
2023-04-16T03:54:45.351Z,9.15
2023-04-16T03:57:12.415Z,9.77
2023-04-16T03:59:39.480Z,9.07
2023-04-16T04:02:06.703Z,9.00
2023-04-16T04:04:33.941Z,8.80
2023-04-16T04:07:01.165Z,9.90
2023-04-16T04:09:28.238Z,9.70
2023-04-16T04:11:55.442Z,10.63
2023-04-16T04:14:22.468Z,8.57
2023-04-16T04:16:49.502Z,9.47
2023-04-16T04:19:16.916Z,9.00
2023-04-16T04:21:43.964Z,8.15
2023-04-16T04:24:11.379Z,8.50
2023-04-16T04:26:38.543Z,9.23
2023-04-16T04:29:05.695Z,8.30
2023-04-16T04:31:33.045Z,7.75
2023-04-16T04:34:00.182Z,7.85
2023-04-16T04:36:27.438Z,8.02
2023-04-16T04:38:54.547Z,8.40
2023-04-16T04:41:21.872Z,8.17
2023-04-16T04:43:48.972Z,8.07
2023-04-16T04:46:16.183Z,7.72
2023-04-16T04:48:43.302Z,8.05
2023-04-16T04:51:10.531Z,7.88
2023-04-16T04:53:37.584Z,7.93
2023-04-16T04:56:12.091Z,7.55
2023-04-16T04:58:41.004Z,7.60
2023-04-16T05:01:08.122Z,7.28
2023-04-16T05:03:35.485Z,7.38
2023-04-16T05:06:02.821Z,6.63
2023-04-16T05:08:30.223Z,7.60
2023-04-16T05:10:57.356Z,7.13
2023-04-16T05:13:24.442Z,6.70
2023-04-16T05:15:51.503Z,7.65
2023-04-16T05:18:18.855Z,6.70
2023-04-16T05:20:46.084Z,7.38
2023-04-16T05:23:13.181Z,7.22
2023-04-16T05:25:40.250Z,7.45
2023-04-16T05:28:07.326Z,7.47
2023-04-16T05:30:34.404Z,7.33
2023-04-16T05:33:01.743Z,8.20
2023-04-16T05:35:28.864Z,6.95
2023-04-16T05:37:55.897Z,7.03
2023-04-16T05:40:23.039Z,7.05
2023-04-16T05:42:50.488Z,7.13
2023-04-16T05:45:17.659Z,7.45
2023-04-16T05:47:44.756Z,7.25
2023-04-16T05:50:11.814Z,7.32
2023-04-16T05:52:39.015Z,8.07
2023-04-16T05:55:07.089Z,7.50
2023-04-16T05:57:34.214Z,6.95
2023-04-16T06:00:01.646Z,7.32
2023-04-16T06:02:30.531Z,7.45
2023-04-16T06:04:57.704Z,7.40
2023-04-16T06:07:24.781Z,6.53
2023-04-16T06:09:51.850Z,7.07
2023-04-16T06:12:18.918Z,7.25
2023-04-16T06:14:45.988Z,7.18
2023-04-16T06:17:13.026Z,8.02
2023-04-16T06:19:40.769Z,7.33
2023-04-16T06:22:07.899Z,6.78
2023-04-16T06:24:34.936Z,6.65
2023-04-16T06:27:02.777Z,6.57
2023-04-16T06:29:40.665Z,6.65
2023-04-16T06:32:09.105Z,6.10
2023-04-16T06:34:38.502Z,6.93
2023-04-16T06:37:06.707Z,6.38
2023-04-16T06:39:35.205Z,6.93
2023-04-16T06:42:02.641Z,6.78
2023-04-16T06:44:29.733Z,6.43
2023-04-16T06:46:56.844Z,5.72
2023-04-16T06:49:24.230Z,7.47
2023-04-16T06:51:51.642Z,7.18
2023-04-16T06:54:19.732Z,6.82
2023-04-16T06:56:46.880Z,6.93
2023-04-16T06:59:14.200Z,7.20
2023-04-16T07:01:41.512Z,7.53
2023-04-16T07:04:09.523Z,7.53
2023-04-16T07:06:36.629Z,6.93
2023-04-16T07:09:03.793Z,7.10
2023-04-16T07:11:31.527Z,7.40
2023-04-16T07:13:58.988Z,7.32
2023-04-16T07:16:26.126Z,7.85
2023-04-16T07:18:53.239Z,9.23
2023-04-16T07:21:21.008Z,7.53
2023-04-16T07:23:48.216Z,8.10
2023-04-16T07:26:15.599Z,8.40
2023-04-16T07:28:43.586Z,8.43
2023-04-16T07:31:10.902Z,9.20
2023-04-16T07:33:38.227Z,9.40
2023-04-16T07:36:05.555Z,9.05
2023-04-16T07:38:32.645Z,9.52
2023-04-16T07:40:59.758Z,8.98
2023-04-16T07:43:26.897Z,9.23
2023-04-16T07:45:54.022Z,10.13
2023-04-16T07:48:22.002Z,9.18
2023-04-16T07:50:50.155Z,9.50
2023-04-16T07:53:17.260Z,9.50
2023-04-16T07:55:44.414Z,9.50
2023-04-16T07:58:11.519Z,10.53
2023-04-16T08:00:39.518Z,9.25
2023-04-16T08:03:06.997Z,9.90
2023-04-16T08:05:34.129Z,10.13
2023-04-16T08:08:01.256Z,10.13
2023-04-16T08:10:28.449Z,10.73
2023-04-16T08:12:55.523Z,10.68
2023-04-16T08:15:22.607Z,10.68
2023-04-16T08:17:49.725Z,10.80
2023-04-16T08:20:19.106Z,10.82
2023-04-16T08:22:46.702Z,11.40
2023-04-16T08:25:14.576Z,11.00
2023-04-16T08:27:41.676Z,10.55
2023-04-16T08:30:08.803Z,11.27
2023-04-16T08:32:35.968Z,11.02
2023-04-16T08:35:03.149Z,10.87
2023-04-16T08:37:30.458Z,11.68
2023-04-16T08:39:57.582Z,10.40
2023-04-16T08:42:32.617Z,10.68
2023-04-16T08:45:09.467Z,10.82
2023-04-16T08:47:37.297Z,9.80
2023-04-16T08:50:05.699Z,9.13
2023-04-16T08:52:33.185Z,9.05
2023-04-16T08:55:12.452Z,8.70
2023-04-16T08:57:46.251Z,10.00
2023-04-16T09:00:13.870Z,8.73
2023-04-16T09:02:41.182Z,9.35
2023-04-16T09:05:11.024Z,9.50
2023-04-16T09:07:38.806Z,9.50
2023-04-16T09:10:07.106Z,8.85
2023-04-16T09:12:35.799Z,8.57
2023-04-16T09:15:03.649Z,8.32
2023-04-16T09:17:31.330Z,8.25
2023-04-16T09:19:59.514Z,9.93
2023-04-16T09:22:26.648Z,9.27
2023-04-16T09:24:53.923Z,8.63
2023-04-16T09:27:21.534Z,7.57
2023-04-16T09:29:49.722Z,9.38
2023-04-16T09:32:16.804Z,7.63
2023-04-16T09:35:10.649Z,8.25
2023-04-16T09:37:38.690Z,7.30
2023-04-16T09:40:08.158Z,7.93
2023-04-16T09:42:36.998Z,8.38
2023-04-16T09:45:05.944Z,7.15
2023-04-16T09:47:42.107Z,7.28
2023-04-16T09:50:12.607Z,7.43
2023-04-16T09:52:44.198Z,7.32
2023-04-16T09:55:11.256Z,7.10
2023-04-16T09:57:39.196Z,7.72
2023-04-16T10:00:08.993Z,7.32
2023-04-16T10:02:39.095Z,7.27
2023-04-16T10:05:07.790Z,6.78
2023-04-16T10:07:36.122Z,6.97
2023-04-16T10:10:04.867Z,6.63
2023-04-16T10:12:33.074Z,7.10
2023-04-16T10:15:00.610Z,6.20
2023-04-16T10:17:30.230Z,5.97
2023-04-16T10:19:58.204Z,6.20
2023-04-16T10:22:26.364Z,6.07
2023-04-16T10:24:54.100Z,6.38
2023-04-16T10:27:21.459Z,6.70
2023-04-16T10:29:49.034Z,6.22
2023-04-16T10:32:17.436Z,5.78
2023-04-16T10:34:45.303Z,6.00
2023-04-16T10:37:12.690Z,5.85
2023-04-16T10:39:40.221Z,5.67
2023-04-16T10:42:13.800Z,5.35
2023-04-16T10:44:44.357Z,6.07
2023-04-16T10:47:14.253Z,5.30
2023-04-16T10:49:42.895Z,5.55
2023-04-16T10:52:17.245Z,5.00
2023-04-16T10:54:44.951Z,5.72
2023-04-16T10:57:19.954Z,5.05
2023-04-16T10:59:49.210Z,4.97
2023-04-16T11:02:20.470Z,5.10
2023-04-16T11:04:49.538Z,5.03
2023-04-16T11:07:17.293Z,4.80
2023-04-16T11:09:47.450Z,4.75
2023-04-16T11:12:27.648Z,5.20
2023-04-16T11:14:59.313Z,5.78
2023-04-16T11:17:41.301Z,4.43
2023-04-16T11:20:28.938Z,5.43
2023-04-16T11:22:57.365Z,4.38
2023-04-16T11:25:27.126Z,4.22
2023-04-16T11:27:56.248Z,4.78
2023-04-16T11:30:31.351Z,4.43
2023-04-16T11:32:58.539Z,4.57
2023-04-16T11:35:26.349Z,4.28
2023-04-16T11:37:56.524Z,4.22
2023-04-16T11:40:26.766Z,4.05
2023-04-16T11:42:54.077Z,4.23
2023-04-16T11:45:21.153Z,4.93
2023-04-16T11:47:53.363Z,4.55
2023-04-16T11:50:30.664Z,4.35
2023-04-16T11:53:04.164Z,4.35
2023-04-16T11:55:49.579Z,4.10
2023-04-16T11:58:16.638Z,3.95
2023-04-16T12:00:45.262Z,4.28
2023-04-16T12:03:12.963Z,3.83
2023-04-16T12:05:40.907Z,3.47
2023-04-16T12:08:09.941Z,4.03
2023-04-16T12:10:52.420Z,3.55
2023-04-16T12:13:20.142Z,3.67
2023-04-16T12:15:48.212Z,3.70
2023-04-16T12:18:16.415Z,4.03
2023-04-16T12:20:44.860Z,4.03
2023-04-16T12:23:24.689Z,3.78
2023-04-16T12:25:52.229Z,4.07
2023-04-16T12:28:33.341Z,3.95
2023-04-16T12:31:01.609Z,3.47
2023-04-16T12:33:29.466Z,3.50
2023-04-16T12:35:57.108Z,3.50
2023-04-16T12:38:25.565Z,3.63
2023-04-16T12:40:56.446Z,3.70
2023-04-16T12:43:24.054Z,3.47
2023-04-16T12:45:51.375Z,3.60
2023-04-16T12:48:18.653Z,3.90
2023-04-16T12:50:46.060Z,4.20
2023-04-16T12:53:13.122Z,3.53
2023-04-16T12:55:40.330Z,3.28
2023-04-16T12:58:11.078Z,3.90
2023-04-16T13:00:39.875Z,2.85
2023-04-16T13:03:07.036Z,3.88
2023-04-16T13:05:34.792Z,3.75
2023-04-16T13:08:02.136Z,3.97
2023-04-16T13:10:29.290Z,3.30
2023-04-16T13:12:57.517Z,3.67
2023-04-16T13:15:25.731Z,3.75
2023-04-16T13:17:53.014Z,3.83
2023-04-16T13:20:21.924Z,3.63
2023-04-16T13:22:51.051Z,3.83
2023-04-16T13:25:19.567Z,3.60
2023-04-16T13:27:47.609Z,4.28
2023-04-16T13:30:16.093Z,4.07
2023-04-16T13:32:44.086Z,4.30
2023-04-16T13:35:11.796Z,4.50
2023-04-16T13:37:39.053Z,4.63
2023-04-16T13:40:08.655Z,3.95
2023-04-16T13:42:37.532Z,4.72
2023-04-16T13:45:07.506Z,3.10
2023-04-16T13:47:36.797Z,4.23
2023-04-16T13:50:05.172Z,3.55
2023-04-16T13:52:33.542Z,4.32
2023-04-16T13:55:01.762Z,3.80
2023-04-16T13:57:29.215Z,4.20
2023-04-16T13:59:56.390Z,3.70
2023-04-16T14:02:23.567Z,3.95
2023-04-16T14:04:50.807Z,3.97
2023-04-16T14:07:19.870Z,3.92
2023-04-16T14:09:48.386Z,3.83
2023-04-16T14:12:16.307Z,3.20
2023-04-16T14:14:43.377Z,3.40
2023-04-16T14:17:11.686Z,3.53
2023-04-16T14:19:39.623Z,3.08
2023-04-16T14:22:09.479Z,2.95
2023-04-16T14:24:37.854Z,3.60
2023-04-16T14:27:07.692Z,2.78
2023-04-16T14:29:36.825Z,2.50
2023-04-16T14:32:06.178Z,2.88
2023-04-16T14:34:33.967Z,2.88
2023-04-16T14:37:02.469Z,3.13
2023-04-16T14:39:32.166Z,3.40
2023-04-16T14:42:00.610Z,2.83
2023-04-16T14:44:29.522Z,2.83
2023-04-16T14:46:58.210Z,2.40
2023-04-16T14:49:26.597Z,2.70
2023-04-16T14:51:54.639Z,2.80
2023-04-16T14:54:23.167Z,2.28
2023-04-16T14:56:51.294Z,2.13
2023-04-16T14:59:18.842Z,1.75
2023-04-16T15:01:48.059Z,1.63
2023-04-16T15:04:16.623Z,2.28
2023-04-16T15:06:46.525Z,2.30
2023-04-16T15:09:14.637Z,2.10
2023-04-16T15:11:42.617Z,2.30
2023-04-16T15:14:10.139Z,2.10
2023-04-16T15:16:38.780Z,2.03
2023-04-16T15:19:07.118Z,1.98
2023-04-16T15:21:34.845Z,1.60
2023-04-16T15:24:04.749Z,1.80
2023-04-16T15:26:33.039Z,2.50
2023-04-16T15:29:00.877Z,1.60
2023-04-16T15:31:29.611Z,1.90
2023-04-16T15:33:56.919Z,1.63
2023-04-16T15:36:24.777Z,1.98
2023-04-16T15:38:53.449Z,1.60
2023-04-16T15:41:20.826Z,1.55
2023-04-16T15:43:48.189Z,2.00
2023-04-16T15:46:15.604Z,1.35
2023-04-16T15:48:42.704Z,1.77
2023-04-16T15:51:10.624Z,1.90
2023-04-16T15:53:37.927Z,1.40
2023-04-16T15:56:05.090Z,1.60
2023-04-16T15:58:32.172Z,1.50
2023-04-16T16:00:59.270Z,1.73
2023-04-16T16:03:26.626Z,1.40
2023-04-16T16:05:53.816Z,1.52
2023-04-16T16:08:20.925Z,1.40
2023-04-16T16:10:48.678Z,1.10
2023-04-16T16:13:18.154Z,1.20
2023-04-16T16:15:45.866Z,1.03
2023-04-16T16:18:12.975Z,1.08
2023-04-16T16:20:40.536Z,1.20
2023-04-16T16:23:07.812Z,1.40
2023-04-16T16:25:35.195Z,1.10
2023-04-16T16:28:06.029Z,1.30
2023-04-16T16:30:33.531Z,1.48
2023-04-16T16:33:00.797Z,1.40
2023-04-16T16:35:27.903Z,1.38
2023-04-16T16:37:57.894Z,1.67
2023-04-16T16:40:25.289Z,1.37
2023-04-16T16:42:52.775Z,2.22
2023-04-16T16:45:20.748Z,1.90
2023-04-16T16:47:48.833Z,1.45
2023-04-16T16:50:16.130Z,1.33
2023-04-16T16:52:44.552Z,1.27
2023-04-16T16:55:11.967Z,1.60
2023-04-16T16:57:39.331Z,1.80
2023-04-16T17:00:16.329Z,1.67
2023-04-16T17:02:43.924Z,2.03
2023-04-16T17:05:12.552Z,1.60
2023-04-16T17:07:39.841Z,2.17
2023-04-16T17:10:07.358Z,2.00
2023-04-16T17:12:34.460Z,1.77
2023-04-16T17:15:01.555Z,2.10
2023-04-16T17:17:29.230Z,2.33
2023-04-16T17:19:56.329Z,2.40
2023-04-16T17:22:23.705Z,2.10
2023-04-16T17:24:50.908Z,2.20
2023-04-16T17:27:18.044Z,2.50
2023-04-16T17:29:45.384Z,2.70
2023-04-16T17:32:12.691Z,2.50
2023-04-16T17:34:39.897Z,3.28
2023-04-16T17:37:07.245Z,2.75
2023-04-16T17:39:34.316Z,3.17
2023-04-16T17:42:03.026Z,2.93
2023-04-16T17:44:30.382Z,2.92
2023-04-16T17:46:57.443Z,3.55
2023-04-16T17:49:24.524Z,3.78
2023-04-16T17:51:52.618Z,3.47
2023-04-16T17:54:19.847Z,3.00
2023-04-16T17:56:47.218Z,3.05
2023-04-16T17:59:14.302Z,2.88
2023-04-16T18:01:41.661Z,2.83
2023-04-16T18:04:09.578Z,2.63
2023-04-16T18:06:36.883Z,2.70
2023-04-16T18:09:05.771Z,3.30
2023-04-16T18:11:33.186Z,2.63
2023-04-16T18:14:00.241Z,3.17
2023-04-16T18:16:27.518Z,5.22
2023-04-16T18:18:54.606Z,4.63
2023-04-16T18:21:22.046Z,6.65
2023-04-16T18:23:49.133Z,3.67
2023-04-16T18:26:20.430Z,3.15
2023-04-16T18:28:49.277Z,3.50
2023-04-16T18:31:18.410Z,4.43
2023-04-16T18:33:56.279Z,3.88
2023-04-16T18:36:26.097Z,4.20
2023-04-16T18:39:01.491Z,4.28
2023-04-16T18:41:30.767Z,4.75
2023-04-16T18:43:58.162Z,4.87
2023-04-16T18:46:26.729Z,5.47
2023-04-16T18:48:54.259Z,22.70
2023-04-16T18:51:21.377Z,6.68
2023-04-16T18:53:48.420Z,4.95
2023-04-16T18:56:15.473Z,5.00
2023-04-16T18:58:43.415Z,5.05
2023-04-16T19:01:13.957Z,4.72
2023-04-16T19:03:41.482Z,4.63
2023-04-16T19:06:09.573Z,5.25
2023-04-16T19:08:36.617Z,5.57
2023-04-16T19:11:03.698Z,5.53
2023-04-16T19:13:32.242Z,5.40
2023-04-16T19:16:00.836Z,7.10
2023-04-16T19:18:28.997Z,5.68
2023-04-16T19:21:02.054Z,5.90
2023-04-16T19:23:29.670Z,5.57
2023-04-16T19:25:57.226Z,5.70
2023-04-16T19:28:25.014Z,5.70
2023-04-16T19:30:53.318Z,5.60
2023-04-16T19:33:20.525Z,5.60
2023-04-16T19:35:47.937Z,5.53
2023-04-16T19:38:15.055Z,6.18
2023-04-16T19:40:48.774Z,5.55
2023-04-16T19:43:15.863Z,5.82
2023-04-16T19:45:46.976Z,5.60
2023-04-16T19:48:14.385Z,5.70
2023-04-16T19:50:42.274Z,6.80
2023-04-16T19:53:09.597Z,6.43
2023-04-16T19:55:37.049Z,6.68
2023-04-16T19:58:06.825Z,6.10
2023-04-16T20:00:35.065Z,7.07
2023-04-16T20:03:02.225Z,6.30
2023-04-16T20:05:29.706Z,7.60
2023-04-16T20:07:57.060Z,7.32
2023-04-16T20:10:24.126Z,7.30
2023-04-16T20:12:51.305Z,7.13
2023-04-16T20:15:18.886Z,7.35
2023-04-16T20:17:46.084Z,6.70
2023-04-16T20:20:15.741Z,6.82
2023-04-16T20:22:43.388Z,6.77
2023-04-16T20:25:10.507Z,6.88
2023-04-16T20:27:37.651Z,6.97
2023-04-16T20:30:06.341Z,6.63
2023-04-16T20:32:33.624Z,7.30
2023-04-16T20:35:01.918Z,6.97
2023-04-16T20:37:29.203Z,6.82
2023-04-16T20:39:56.484Z,7.22
2023-04-16T20:42:26.186Z,6.40
2023-04-16T20:44:56.371Z,7.38
2023-04-16T20:47:23.928Z,5.97
2023-04-16T20:49:52.632Z,6.55
2023-04-16T20:52:21.655Z,6.88
2023-04-16T20:54:51.949Z,6.88
2023-04-16T20:57:19.137Z,7.20
2023-04-16T20:59:46.393Z,7.30
2023-04-16T21:02:13.657Z,5.70
2023-04-16T21:04:41.196Z,6.30
2023-04-16T21:07:08.319Z,6.32
2023-04-16T21:09:35.641Z,6.28
2023-04-16T21:12:02.748Z,5.63
2023-04-16T21:14:29.809Z,6.18
2023-04-16T21:16:56.896Z,5.82
2023-04-16T21:19:23.944Z,6.30
2023-04-16T21:21:51.227Z,6.90
2023-04-16T21:24:18.285Z,6.33
2023-04-16T21:26:45.366Z,5.60
2023-04-16T21:29:13.082Z,5.72
2023-04-16T21:31:40.439Z,6.28
2023-04-16T21:34:07.528Z,6.53
2023-04-16T21:36:35.057Z,6.20
2023-04-16T21:39:02.375Z,6.50
2023-04-16T21:41:29.450Z,6.97
2023-04-16T21:43:56.610Z,6.95
2023-04-16T21:46:23.779Z,7.43
2023-04-16T21:48:50.897Z,6.83
2023-04-16T21:51:18.179Z,7.32
2023-04-16T21:53:45.228Z,6.30
2023-04-16T21:56:12.328Z,6.60
2023-04-16T21:58:39.376Z,6.78
2023-04-16T22:01:07.277Z,7.50
2023-04-16T22:03:39.929Z,7.65
2023-04-16T22:06:07.744Z,6.28
2023-04-16T22:08:34.936Z,7.45
2023-04-16T22:11:02.629Z,7.18
2023-04-16T22:13:32.480Z,7.33
2023-04-16T22:16:03.417Z,7.03
2023-04-16T22:18:33.731Z,7.35
2023-04-16T22:21:00.944Z,7.32
2023-04-16T22:23:28.051Z,7.53
2023-04-16T22:25:56.124Z,7.50
2023-04-16T22:28:24.250Z,7.25
2023-04-16T22:30:51.392Z,7.97
2023-04-16T22:33:18.613Z,7.18
2023-04-16T22:35:46.003Z,7.22
2023-04-16T22:38:13.139Z,7.10
2023-04-16T22:40:40.680Z,7.65
2023-04-16T22:43:07.731Z,6.82
2023-04-16T22:45:35.558Z,7.38
2023-04-16T22:48:03.464Z,8.13
2023-04-16T22:50:32.108Z,7.33
2023-04-16T22:52:59.175Z,7.75
2023-04-16T22:55:26.404Z,7.45
2023-04-16T22:57:53.482Z,8.30
2023-04-16T23:00:21.146Z,8.18
2023-04-16T23:02:48.938Z,8.10
2023-04-16T23:05:16.414Z,8.10
2023-04-16T23:07:43.467Z,8.20
2023-04-16T23:10:10.811Z,8.10
2023-04-16T23:12:37.849Z,6.50
2023-04-16T23:15:06.622Z,7.33
2023-04-16T23:17:34.941Z,7.32
2023-04-16T23:20:02.492Z,7.38
2023-04-16T23:22:29.675Z,6.70
2023-04-16T23:24:56.894Z,6.63
2023-04-16T23:27:23.929Z,5.87
2023-04-16T23:29:51.089Z,5.90
2023-04-16T23:32:18.807Z,6.15
2023-04-16T23:34:45.980Z,5.82
2023-04-16T23:37:13.063Z,5.45
2023-04-16T23:39:41.019Z,5.57
2023-04-16T23:42:08.116Z,5.45
2023-04-16T23:44:35.380Z,5.72
2023-04-16T23:47:02.583Z,5.50
2023-04-16T23:49:30.068Z,5.50
2023-04-16T23:51:57.333Z,5.30
2023-04-16T23:54:24.618Z,5.05
2023-04-16T23:56:51.663Z,5.32
2023-04-16T23:59:18.874Z,4.90
